Portada
METAR-TAF:

METAR-TAF

Aeroports :

Kupang, Indonèsia

latitud: 10-10-17S, longitud: 123-40-16E, altitud: 102 m

Observació

L'informe es va fer fa 33 minuts, a les 13:00 UTC
Vent 5 kt del Nord/Nord-Oest
Temperatura 27°C
Humitat 84%
Pressió 1011 hPa
Visibilitat: 8000 m
Escasses núvols a una alçada de 2000 ft

METAR: WATT 241300Z 33005KT 8000 FEW020 27/24 Q1011 NOSIG

Hora: 20:33 (13:33 UTC)

Pronòstic

L'informe es va fer fa 2 hores i 33 minuts, a les 11:00 UTC
Pronòstic vàlid del 24 a les 12 UTC al 25 a les 12 UTC
Vent 9 kt del Oest/Nord-Oest
Núvols disperses a una alçada de 1800 ft
Probabilitat 40% :
Temporalment
l' 25 a les 06 UTC al 25 a les 09 UTC
Visibilitat: 5000 m
Cel ennuvolat a una alçada de 1800 ft
pluja

TAF: WATT 241100Z 2412/2512 30009KT SCT018 PROB40 TEMPO 2506/2509 5000 RA BKN018

Observacions i pronòstics meteorològics de més de 4000 aeroports (METAR i TAF).

Les estacions disponibles són els punts grocs i vermells al mapa.

Posi el ratolí al punt desitjat per veure el nom de l'estació.

Feu clic per veure les observacions i els pronòstics meteorològics.

Per canviar el mapa: feu clic els botons verds amb una creu de color negre per apropar; al botó verd amb un guió per allunyar la imatge; o en les fletxes verdes per a mapes adjacents.


METAR-TAF: